Time;durP1;ratioP1;P1;durP2;ratioP2;P2;SDS_P1;SDS_P2;PMS_P1;PMS_P2;Temp;Humidity;BMP_temperature;BMP_pressure;BME280_temperature;BME280_humidity;BME280_pressure;Samples;Min_cycle;Max_cycle;Signal;HPM_P1;HPM_P2
2021/04/01 00:02:27;;;;;;;7.75;6.55;;;;;;;7.54;92.26;99286.38;5033335;28;20029;-58
2021/04/01 00:04:55;;;;;;;6.75;5.82;;;;;;;7.54;92.04;99288.09;5034469;28;20025;-58
2021/04/01 00:07:21;;;;;;;5.10;4.60;;;;;;;7.63;92.12;99287.13;5022459;28;20036;-59
2021/04/01 00:09:48;;;;;;;6.05;5.43;;;;;;;7.68;91.99;99282.72;5031863;28;20040;-58
2021/04/01 00:12:19;;;;;;;8.75;5.40;;;;;;;7.67;91.61;99281.91;5025212;28;20080;-58
2021/04/01 00:14:45;;;;;;;6.50;4.78;;;;;;;7.70;90.66;99294.72;5022363;28;20042;-57
2021/04/01 00:17:12;;;;;;;5.07;4.57;;;;;;;7.70;91.18;99286.16;5028614;28;20322;-57
2021/04/01 00:19:38;;;;;;;4.40;3.95;;;;;;;7.60;91.28;99283.72;5030363;28;20311;-57
2021/04/01 00:22:04;;;;;;;5.13;3.88;;;;;;;7.61;91.73;99274.28;5027906;28;20036;-58
2021/04/01 00:24:31;;;;;;;4.88;4.15;;;;;;;7.73;91.47;99279.19;5021965;28;20028;-57
2021/04/01 00:26:57;;;;;;;4.43;3.85;;;;;;;7.78;91.87;99274.84;5026819;28;20045;-58
2021/04/01 00:29:32;;;;;;;4.40;4.00;;;;;;;7.86;90.88;99281.59;5025991;28;20021;-58
2021/04/01 00:31:58;;;;;;;4.93;4.20;;;;;;;7.84;90.73;99279.03;5025820;28;20116;-59
2021/04/01 00:34:24;;;;;;;6.22;4.75;;;;;;;7.80;91.16;99273.97;5034817;28;20029;-58
2021/04/01 00:36:50;;;;;;;5.45;4.30;;;;;;;7.67;90.31;99278.47;5028548;28;20022;-58
2021/04/01 00:39:16;;;;;;;4.65;3.60;;;;;;;7.81;90.49;99276.53;5031805;28;20032;-58
2021/04/01 00:41:42;;;;;;;4.47;4.00;;;;;;;7.82;90.60;99282.50;5033678;28;20033;-57
2021/04/01 00:44:08;;;;;;;4.28;3.88;;;;;;;7.71;90.51;99259.47;5026273;28;20092;-58
2021/04/01 00:46:34;;;;;;;4.00;3.63;;;;;;;7.73;91.86;99283.53;5025672;28;20041;-58
2021/04/01 00:49:00;;;;;;;4.57;4.15;;;;;;;7.83;90.40;99276.50;5028922;28;20030;-58
2021/04/01 00:51:26;;;;;;;4.00;3.67;;;;;;;7.82;90.45;99285.09;5035648;28;20048;-58
2021/04/01 00:53:52;;;;;;;5.18;4.10;;;;;;;7.78;90.15;99274.84;5025630;28;20034;-57
2021/04/01 00:56:22;;;;;;;5.00;3.67;;;;;;;7.46;90.67;99217.81;5009576;28;20330;-58
2021/04/01 00:58:48;;;;;;;4.68;3.67;;;;;;;7.88;90.92;99284.97;5004883;28;20041;-57
2021/04/01 01:01:31;;;;;;;5.13;3.65;;;;;;;7.92;91.01;99276.31;5004723;28;20028;-58
2021/04/01 01:03:58;;;;;;;4.85;4.35;;;;;;;7.76;91.11;99278.31;5004565;28;20031;-58
2021/04/01 01:06:24;;;;;;;4.45;3.83;;;;;;;7.83;91.11;99279.91;5004765;28;20086;-59
2021/04/01 01:08:50;;;;;;;5.18;4.13;;;;;;;7.84;90.25;99268.72;5004617;28;20258;-58
2021/04/01 01:11:16;;;;;;;4.93;4.43;;;;;;;7.82;91.68;99275.63;5004510;28;20042;-58
2021/04/01 01:13:41;;;;;;;4.10;3.70;;;;;;;8.00;90.70;99277.03;5004479;28;20046;-58
2021/04/01 01:16:07;;;;;;;4.60;4.20;;;;;;;7.96;90.82;99272.81;5004495;28;20022;-59
2021/04/01 01:18:34;;;;;;;3.97;3.67;;;;;;;7.90;90.78;99276.34;5004428;28;20026;-58
2021/04/01 01:21:00;;;;;;;5.13;4.20;;;;;;;7.85;90.21;99283.31;5004151;28;20030;-58
2021/04/01 01:23:28;;;;;;;4.40;4.00;;;;;;;7.89;90.27;99281.53;5004285;28;20378;-58
2021/04/01 01:25:55;;;;;;;4.72;3.75;;;;;;;7.80;90.68;99279.13;5003953;28;20053;-57
2021/04/01 01:28:22;;;;;;;4.43;3.60;;;;;;;7.99;90.92;99285.66;5004214;28;20057;-57
2021/04/01 01:30:49;;;;;;;4.75;3.30;;;;;;;7.80;91.03;99276.53;5003918;28;20042;-57
2021/04/01 01:33:18;;;;;;;4.15;3.38;;;;;;;7.80;91.07;99253.34;5004202;28;20311;-57
2021/04/01 01:35:47;;;;;;;4.13;3.53;;;;;;;7.98;90.53;99270.22;5003239;28;20048;-56
2021/04/01 01:38:13;;;;;;;4.57;3.17;;;;;;;7.89;90.19;99273.78;5004166;28;20158;-57
2021/04/01 01:40:39;;;;;;;3.92;3.40;;;;;;;7.98;90.17;99275.38;5003763;28;20026;-57
2021/04/01 01:43:08;;;;;;;3.35;3.05;;;;;;;7.97;89.99;99282.25;5004078;28;20097;-57
2021/04/01 01:45:35;;;;;;;3.47;3.17;;;;;;;8.03;89.38;99289.03;5003881;28;20224;-58
2021/04/01 01:48:02;;;;;;;3.90;3.47;;;;;;;7.98;89.68;99283.09;4995963;28;20041;-59
2021/04/01 01:50:32;;;;;;;3.83;3.45;;;;;;;7.65;89.67;99228.66;4986679;28;20306;-60
2021/04/01 01:52:58;;;;;;;5.15;3.30;;;;;;;7.98;89.31;99283.97;5003583;28;20045;-58
2021/04/01 01:55:25;;;;;;;3.20;2.90;;;;;;;8.04;90.04;99285.59;5003851;28;20072;-58
2021/04/01 01:57:51;;;;;;;4.70;3.67;;;;;;;8.02;88.75;99275.28;5003519;28;20030;-57
2021/04/01 02:00:23;;;;;;;4.18;3.63;;;;;;;8.01;89.82;99276.16;4986410;28;20026;-57
2021/04/01 02:03:01;;;;;;;4.40;4.00;;;;;;;7.97;89.34;99277.09;5003600;28;20030;-57
2021/04/01 02:05:29;;;;;;;4.57;4.05;;;;;;;7.95;89.16;99284.00;5003451;28;20026;-57
2021/04/01 02:07:56;;;;;;;3.70;2.42;;;;;;;7.98;89.20;99277.94;5003419;28;20363;-57
2021/04/01 02:10:46;;;;;;;2.67;2.42;;;;;;;7.58;88.34;99233.94;4986349;28;20306;-58
2021/04/01 02:13:17;;;;;;;3.63;2.00;;;;;;;7.53;87.70;99224.59;4996949;28;20098;-58
2021/04/01 02:15:44;;;;;;;1.97;1.77;;;;;;;7.90;87.98;99276.34;5003521;28;20022;-58
2021/04/01 02:18:11;;;;;;;1.83;1.50;;;;;;;7.55;86.61;99225.38;5003294;28;20038;-58
2021/04/01 02:20:43;;;;;;;2.70;1.50;;;;;;;7.99;87.31;99306.28;5003089;28;20045;-57
2021/04/01 02:23:16;;;;;;;1.70;1.40;;;;;;;7.95;86.98;99284.00;5003158;28;20030;-57
2021/04/01 02:25:44;;;;;;;1.70;1.45;;;;;;;7.91;86.66;99282.38;5003108;28;20104;-57
2021/04/01 02:28:14;;;;;;;1.60;1.50;;;;;;;7.99;86.70;99280.50;5003314;28;20251;-57
2021/04/01 02:30:43;;;;;;;2.08;1.55;;;;;;;7.81;86.30;99267.91;5002555;28;20041;-57
2021/04/01 02:33:09;;;;;;;1.50;1.40;;;;;;;7.93;86.73;99280.59;5002857;28;20022;-57
2021/04/01 02:35:36;;;;;;;2.38;1.55;;;;;;;7.92;85.87;99278.91;5003502;28;20037;-59
2021/04/01 02:38:03;;;;;;;1.83;1.38;;;;;;;7.94;86.52;99277.16;4995556;28;20030;-58
2021/04/01 02:40:30;;;;;;;2.85;1.70;;;;;;;7.90;85.99;99278.09;5003435;28;20030;-59
2021/04/01 02:42:57;;;;;;;1.75;1.65;;;;;;;7.90;86.04;99280.66;5003309;28;20889;-58
2021/04/01 02:45:22;;;;;;;2.40;1.60;;;;;;;7.75;86.83;99268.88;5003415;28;20037;-58
2021/04/01 02:47:48;;;;;;;2.33;1.70;;;;;;;7.75;86.02;99254.28;4985533;28;20097;-58
2021/04/01 02:50:15;;;;;;;3.53;2.08;;;;;;;7.86;86.75;99276.44;5003504;28;20215;-59
2021/04/01 02:52:41;;;;;;;3.17;2.20;;;;;;;7.77;86.98;99282.59;4985825;28;20056;-59
2021/04/01 02:55:09;;;;;;;2.10;1.88;;;;;;;7.74;86.60;99278.34;5002787;28;20046;-58
2021/04/01 02:57:35;;;;;;;7.13;3.17;;;;;;;7.80;87.39;99273.97;4985714;28;20113;-59
2021/04/01 03:00:09;;;;;;;3.90;2.65;;;;;;;7.84;86.24;99285.91;4995196;28;20057;-59
2021/04/01 03:02:36;;;;;;;3.95;2.95;;;;;;;7.83;86.38;99272.16;5003046;28;20247;-58
2021/04/01 03:05:06;;;;;;;8.02;4.20;;;;;;;7.64;86.33;99263.91;4995126;28;20030;-59
2021/04/01 03:07:36;;;;;;;8.90;3.97;;;;;;;7.71;87.12;99280.97;5003079;28;20049;-59
2021/04/01 03:10:05;;;;;;;11.82;4.63;;;;;;;7.71;86.67;99265.50;4995331;28;20105;-59
2021/04/01 03:12:32;;;;;;;10.27;4.60;;;;;;;7.73;86.60;99266.31;5003076;28;20037;-59
2021/04/01 03:14:58;;;;;;;9.25;4.90;;;;;;;7.69;87.03;99271.56;5002885;28;20034;-59
2021/04/01 03:17:24;;;;;;;11.00;5.60;;;;;;;7.77;87.27;99265.41;5002869;28;20037;-58
2021/04/01 03:19:50;;;;;;;11.48;4.70;;;;;;;7.76;86.48;99271.41;5002883;28;20035;-58
2021/04/01 03:22:17;;;;;;;11.88;5.07;;;;;;;7.73;86.68;99273.22;5002800;28;20037;-59
2021/04/01 03:24:44;;;;;;;12.52;5.28;;;;;;;7.72;87.03;99274.06;5002477;28;20057;-59
2021/04/01 03:27:10;;;;;;;6.22;4.47;;;;;;;7.63;86.60;99267.34;5002862;28;20045;-61
2021/04/01 03:29:36;;;;;;;9.50;5.75;;;;;;;7.74;86.78;99275.75;5002526;28;20254;-59
2021/04/01 03:32:03;;;;;;;9.23;5.28;;;;;;;7.66;87.13;99267.31;5002213;28;20252;-59
2021/04/01 03:34:29;;;;;;;9.77;5.38;;;;;;;7.67;87.06;99273.31;5002294;28;20034;-58
2021/04/01 03:36:55;;;;;;;8.27;4.75;;;;;;;7.73;87.41;99274.06;5002315;28;20026;-58
2021/04/01 03:39:22;;;;;;;8.93;4.90;;;;;;;7.74;87.79;99278.34;5002673;28;20045;-57
2021/04/01 03:41:48;;;;;;;9.52;6.95;;;;;;;7.78;86.69;99273.97;5002456;28;20030;-60
2021/04/01 03:44:14;;;;;;;9.38;5.65;;;;;;;7.81;86.90;99275.66;5002531;28;20026;-59
2021/04/01 03:46:40;;;;;;;8.65;4.78;;;;;;;7.69;86.78;99272.41;5002130;28;20034;-60
2021/04/01 03:49:05;;;;;;;7.28;5.50;;;;;;;7.83;87.02;99271.34;5001948;28;20041;-59
2021/04/01 03:51:31;;;;;;;10.70;5.50;;;;;;;7.86;87.41;99276.44;5002401;28;20334;-59
2021/04/01 03:53:58;;;;;;;9.48;5.65;;;;;;;7.85;86.67;99277.31;5002167;28;20270;-59
2021/04/01 03:56:25;;;;;;;5.80;5.20;;;;;;;7.86;87.22;99290.16;5018463;28;20042;-58
2021/04/01 04:14:41;;;;;;;10.60;6.75;;;;;;;7.72;87.48;99256.03;5008000;28;20026;-59
2021/04/01 04:17:07;;;;;;;9.13;6.07;;;;;;;7.86;86.91;99273.84;5011411;28;20091;-59
2021/04/01 04:19:33;;;;;;;11.70;7.47;;;;;;;7.85;87.68;99274.72;5025852;28;20037;-59
2021/04/01 04:22:00;;;;;;;10.90;6.13;;;;;;;7.95;87.07;99274.56;5013220;28;20041;-58
2021/04/01 04:24:27;;;;;;;8.70;6.78;;;;;;;7.85;87.37;99269.56;5012085;28;20397;-58
2021/04/01 04:26:55;;;;;;;8.27;6.47;;;;;;;7.95;86.21;99265.94;5008955;28;20030;-58
2021/04/01 04:29:22;;;;;;;9.32;6.40;;;;;;;7.95;86.83;99263.38;5019919;28;20076;-58
2021/04/01 04:31:48;;;;;;;6.85;5.85;;;;;;;7.90;87.91;99263.47;5017853;28;20064;-59
2021/04/01 04:34:14;;;;;;;10.73;6.57;;;;;;;7.90;87.55;99265.19;5000077;28;20038;-59
2021/04/01 04:36:40;;;;;;;8.70;6.78;;;;;;;7.88;87.59;99272.97;5008880;28;20029;-60
2021/04/01 04:39:05;;;;;;;12.80;7.00;;;;;;;7.91;87.59;99264.31;5007026;28;20030;-59
2021/04/01 04:41:31;;;;;;;8.20;6.03;;;;;;;7.93;86.73;99260.81;5012634;28;20322;-58
2021/04/01 04:43:57;;;;;;;8.13;5.82;;;;;;;7.86;87.27;99254.06;5024563;28;20084;-59
2021/04/01 04:46:23;;;;;;;7.45;5.68;;;;;;;7.75;87.57;99256.84;5007404;28;20030;-61
2021/04/01 04:48:49;;;;;;;8.43;5.90;;;;;;;7.76;88.25;99258.53;5006259;28;20038;-57
2021/04/01 04:51:16;;;;;;;8.57;5.45;;;;;;;7.82;88.28;99259.31;5014032;28;20049;-58
2021/04/01 04:53:42;;;;;;;6.57;5.25;;;;;;;7.89;88.24;99248.00;5011183;28;20320;-58
2021/04/01 04:56:15;;;;;;;8.00;5.28;;;;;;;7.90;88.14;99250.56;5006502;28;20038;-59
2021/04/01 04:59:27;;;;;;;7.15;5.40;;;;;;;7.95;86.94;99248.75;5002232;28;20030;-59
2021/04/01 05:06:55;;;;;;;8.30;6.38;;;;;;;7.97;86.97;99238.44;4989030;28;20235;-59
2021/04/01 05:09:22;;;;;;;12.57;6.40;;;;;;;7.97;87.68;99235.84;5003635;28;20034;-60
2021/04/01 05:11:48;;;;;;;6.82;5.50;;;;;;;8.11;87.57;99235.59;5004556;28;20041;-61
2021/04/01 05:14:14;;;;;;;9.77;7.03;;;;;;;8.13;87.08;99229.50;5004517;28;20219;-59
2021/04/01 05:16:40;;;;;;;10.60;7.43;;;;;;;8.16;86.24;99231.19;5005060;28;20033;-58
2021/04/01 05:19:09;;;;;;;6.70;6.00;;;;;;;8.22;87.02;99230.22;5004792;28;20030;-58
2021/04/01 05:24:10;;;;;;;10.55;7.10;;;;;;;8.10;87.20;99229.56;4997919;28;20223;-60
2021/04/01 05:29:09;;;;;;;8.55;7.07;;;;;;;7.93;86.90;99229.03;5004840;28;20026;-59
2021/04/01 05:31:37;;;;;;;8.77;7.03;;;;;;;8.15;87.33;99220.91;5004653;28;20045;-59
2021/04/01 05:34:03;;;;;;;8.00;7.20;;;;;;;8.13;87.33;99226.09;5004361;28;20041;-59
2021/04/01 05:36:33;;;;;;;7.28;6.10;;;;;;;8.24;87.12;99219.00;5004413;28;20045;-58
2021/04/01 05:39:00;;;;;;;8.93;6.63;;;;;;;7.94;88.44;99215.28;5004303;28;20254;-60
2021/04/01 05:41:28;;;;;;;9.30;7.25;;;;;;;8.04;87.59;99203.91;4967353;28;20066;-61
2021/04/01 05:47:18;;;;;;;8.30;7.40;;;;;;;8.22;87.85;99217.31;5004098;28;20042;-58
2021/04/01 06:00:45;;;;;;;15.15;13.20;;;;;;;8.22;87.54;99219.91;5002168;28;20278;-58
2021/04/01 06:05:42;;;;;;;20.30;17.15;;;;;;;8.32;88.45;99216.25;5023575;28;20026;-58
2021/04/01 06:08:15;;;;;;;18.02;15.57;;;;;;;8.37;88.06;99219.59;5023736;28;20333;-58
2021/04/01 06:10:41;;;;;;;15.48;13.65;;;;;;;8.44;87.46;99195.41;5023538;28;20072;-58
2021/04/01 06:13:19;;;;;;;15.57;13.32;;;;;;;8.30;86.80;99187.06;5009055;28;20390;-58
2021/04/01 06:15:48;;;;;;;11.73;7.75;;;;;;;8.41;87.13;99198.03;5004741;28;20274;-57
2021/04/01 06:18:20;;;;;;;9.10;8.20;;;;;;;8.53;87.26;99191.78;5004386;28;20026;-58
2021/04/01 06:20:46;;;;;;;;;;;;;;;8.67;86.92;99190.66;5003787;28;20061;-58
2021/04/01 06:23:24;;;;;;;8.23;7.05;;;;;;;8.60;87.10;99164.13;5004773;28;19951;-58
2021/04/01 06:25:54;;;;;;;12.13;6.75;;;;;;;8.46;86.34;99134.31;5021404;28;20330;-58
2021/04/01 06:28:38;;;;;;;7.72;6.78;;;;;;;8.36;86.32;99129.34;5012455;28;20041;-58
2021/04/01 06:31:05;;;;;;;11.32;6.78;;;;;;;8.78;86.09;99194.69;5005910;28;20365;-58
2021/04/01 06:33:42;;;;;;;6.25;5.25;;;;;;;8.76;86.72;99185.28;5008253;28;20069;-58
2021/04/01 06:36:16;;;;;;;8.77;5.68;;;;;;;8.32;87.08;99143.19;5007357;28;20045;-58
2021/04/01 06:38:42;;;;;;;9.32;6.30;;;;;;;8.62;86.14;99182.97;5006220;28;20085;-59
2021/04/01 06:41:24;;;;;;;7.13;6.28;;;;;;;8.65;86.18;99177.78;5008606;28;20054;-58
2021/04/01 06:43:58;;;;;;;;;;;;;;;8.69;85.67;99184.53;5009129;28;20026;-58
2021/04/01 06:46:30;;;;;;;12.57;7.60;;;;;;;8.47;86.62;99189.34;5009962;28;19906;-58
2021/04/01 06:51:43;;;;;;;10.85;8.43;;;;;;;8.23;87.94;99139.06;5017127;28;20018;-58
2021/04/01 06:54:30;;;;;;;9.52;7.43;;;;;;;8.36;87.58;99186.94;5009126;28;20029;-58
2021/04/01 07:03:20;;;;;;;8.43;7.30;;;;;;;8.56;86.49;99165.91;4926609;29;20051;-58
2021/04/01 07:05:53;;;;;;;8.90;6.72;;;;;;;8.27;86.41;99130.38;4986801;28;20042;-58
2021/04/01 07:08:31;;;;;;;10.40;7.07;;;;;;;8.63;87.03;99166.63;5022630;28;20061;-58
2021/04/01 07:11:03;;;;;;;9.75;6.45;;;;;;;8.80;85.77;99169.66;5022235;28;20025;-58
2021/04/01 07:13:37;;;;;;;9.43;7.95;;;;;;;8.41;85.55;99119.78;5018309;28;20033;-58
2021/04/01 07:44:44;;;;;;;8.48;7.00;;;;;;;9.19;83.90;99142.09;5022475;28;20026;-59
2021/04/01 07:44:51;;;;;;;6.57;5.80;;;;;;;9.13;83.10;99120.69;5009674;28;20104;-57
2021/04/01 07:47:27;;;;;;;7.60;6.57;;;;;;;9.39;82.69;99136.44;5010697;28;20295;-59
2021/04/01 07:49:55;;;;;;;9.52;7.25;;;;;;;9.55;82.29;99142.03;5022392;28;20036;-58
2021/04/01 07:52:32;;;;;;;7.97;6.13;;;;;;;9.22;82.44;99092.94;5017162;28;20030;-59
2021/04/01 07:55:11;;;;;;;6.50;5.70;;;;;;;9.22;82.74;99131.69;5022005;28;20088;-59
2021/04/01 08:06:26;;;;;;;7.45;6.65;;;;;;;9.40;82.45;99145.88;5014926;28;20036;-57
2021/04/01 08:08:57;;;;;;;7.93;5.82;;;;;;;9.43;82.09;99128.53;5013232;28;20038;-57
2021/04/01 08:11:27;;;;;;;7.30;6.60;;;;;;;9.26;81.87;99136.75;5002604;28;20094;-57
2021/04/01 08:14:10;;;;;;;7.40;6.65;;;;;;;9.31;82.61;99137.47;5009498;28;20048;-57
2021/04/01 08:19:23;;;;;;;8.70;6.30;;;;;;;9.33;82.45;99129.69;5009573;28;20030;-59
2021/04/01 08:21:50;;;;;;;8.35;7.25;;;;;;;9.40;82.14;99130.38;5008415;28;20034;-58
2021/04/01 08:24:26;;;;;;;7.50;6.30;;;;;;;9.38;82.28;99130.41;5021920;28;20030;-58
2021/04/01 08:34:47;;;;;;;8.18;6.65;;;;;;;9.32;81.22;99113.34;5021174;28;20030;-58
2021/04/01 08:37:15;;;;;;;8.80;6.57;;;;;;;9.33;81.76;99127.09;5021448;28;20041;-59
2021/04/01 08:39:44;;;;;;;7.20;5.72;;;;;;;9.06;81.96;99059.72;5021463;28;20100;-58
2021/04/01 08:42:51;;;;;;;6.97;5.97;;;;;;;8.84;82.56;99063.75;5017485;28;20029;-58
2021/04/01 08:45:49;;;;;;;7.13;5.97;;;;;;;8.87;81.36;99072.25;5024117;28;20040;-59
2021/04/01 08:48:46;;;;;;;7.15;5.50;;;;;;;9.33;81.56;99119.34;5025064;28;20034;-60
2021/04/01 08:51:41;;;;;;;8.00;6.15;;;;;;;9.41;81.06;99108.81;5024103;28;20040;-58
2021/04/01 08:54:22;;;;;;;8.70;7.13;;;;;;;9.36;80.91;99108.09;5010654;28;20041;-58
2021/04/01 08:56:56;;;;;;;8.00;5.70;;;;;;;9.38;80.07;99106.28;5024656;28;20054;-58
2021/04/01 08:59:45;;;;;;;9.50;5.75;;;;;;;9.42;80.78;99105.34;5024985;28;20257;-59
2021/04/01 09:02:20;;;;;;;8.50;5.78;;;;;;;9.11;79.86;99041.56;5006834;28;20034;-58
2021/04/01 09:04:48;;;;;;;8.35;6.20;;;;;;;9.20;80.57;99058.53;5024792;28;20026;-58
2021/04/01 09:07:24;;;;;;;9.32;5.80;;;;;;;9.50;80.59;99101.69;5024708;28;20106;-57
2021/04/01 09:09:52;;;;;;;7.72;5.97;;;;;;;9.48;80.31;99106.03;5024688;28;20220;-58
2021/04/01 09:15:04;;;;;;;8.32;6.18;;;;;;;9.43;79.94;99104.44;5024636;28;20026;-57
2021/04/01 09:17:35;;;;;;;8.70;5.50;;;;;;;9.29;80.18;99089.28;5024444;28;20314;-58
2021/04/01 09:20:31;;;;;;;7.65;5.22;;;;;;;9.22;79.61;99098.97;5008460;28;20076;-58
2021/04/01 09:23:05;;;;;;;6.07;5.03;;;;;;;9.33;80.42;99089.19;5007701;28;20046;-58
2021/04/01 09:25:38;;;;;;;7.40;5.30;;;;;;;9.59;79.65;99090.25;5007125;28;20088;-58
2021/04/01 09:28:08;;;;;;;7.93;5.43;;;;;;;9.15;79.26;99035.44;5024379;28;20041;-57
2021/04/01 09:30:34;;;;;;;5.38;4.88;;;;;;;9.58;79.18;99085.13;5024000;28;20308;-58
2021/04/01 09:33:06;;;;;;;5.60;4.68;;;;;;;9.26;78.04;99029.97;5001202;28;20033;-59
2021/04/01 09:35:37;;;;;;;5.10;4.45;;;;;;;9.61;78.04;99066.94;5024190;28;20038;-59
2021/04/01 09:38:08;;;;;;;6.28;5.00;;;;;;;9.76;76.78;99074.28;5008474;28;20088;-59
2021/04/01 09:40:43;;;;;;;4.57;4.13;;;;;;;9.85;76.97;99065.41;5024368;28;20177;-59
2021/04/01 09:43:18;;;;;;;5.35;4.82;;;;;;;9.66;76.86;99021.09;5013689;28;20037;-58
2021/04/01 09:45:47;;;;;;;6.28;4.60;;;;;;;9.93;76.56;99068.63;5021666;28;20040;-58
2021/04/01 09:48:14;;;;;;;5.15;4.30;;;;;;;9.97;76.95;99066.78;5024032;28;20029;-58
2021/04/01 09:50:43;;;;;;;4.05;3.65;;;;;;;9.69;75.47;99015.88;5006284;28;20026;-59
2021/04/01 09:53:29;;;;;;;5.28;3.83;;;;;;;10.06;75.13;99057.91;5013194;28;20034;-60
2021/04/01 09:55:56;;;;;;;5.45;4.57;;;;;;;10.31;74.49;99058.00;5017867;28;20336;-59
2021/04/01 09:58:31;;;;;;;5.15;4.43;;;;;;;9.96;75.22;99001.28;5019242;28;20045;-60
2021/04/01 10:01:30;;;;;;;5.47;4.53;;;;;;;10.39;74.59;99060.38;5023386;28;20054;-60
2021/04/01 10:04:07;;;;;;;6.40;4.55;;;;;;;10.46;73.93;99048.94;5004708;28;20038;-59
2021/04/01 10:06:45;;;;;;;7.38;5.03;;;;;;;10.37;74.98;99042.31;5023250;28;20049;-59
2021/04/01 10:09:26;;;;;;;6.32;4.60;;;;;;;9.98;75.58;99019.34;5023638;28;20072;-58
2021/04/01 10:12:05;;;;;;;5.65;4.40;;;;;;;10.28;74.91;99051.19;5019866;28;20230;-59
2021/04/01 10:14:32;;;;;;;8.25;4.70;;;;;;;10.24;74.32;99044.41;5023224;28;20030;-58
2021/04/01 10:17:04;;;;;;;5.05;3.97;;;;;;;10.15;75.31;99049.88;5023090;28;20132;-58
2021/04/01 10:19:32;;;;;;;8.32;4.45;;;;;;;10.23;73.68;99062.56;5023426;28;20056;-58
2021/04/01 10:21:59;;;;;;;5.25;3.80;;;;;;;9.93;74.46;99041.88;5019927;28;20042;-59
2021/04/01 10:24:32;;;;;;;9.95;5.60;;;;;;;10.05;74.03;99040.66;5023318;28;20087;-59
2021/04/01 10:30:15;;;;;;;4.78;3.80;;;;;;;10.23;74.74;99044.44;5022636;28;20076;-58
2021/04/01 10:32:28;;;;;;;4.78;4.00;;;;;;;9.79;74.92;98991.44;4985931;28;20039;-59
2021/04/01 10:34:58;;;;;;;8.00;4.65;;;;;;;9.74;75.06;98987.28;5003458;28;20056;-58
2021/04/01 10:37:26;;;;;;;9.13;4.25;;;;;;;10.09;75.82;99047.44;5018620;28;20037;-59
2021/04/01 10:39:52;;;;;;;4.97;4.45;;;;;;;9.93;76.31;99045.34;5023315;28;20208;-60
2021/04/01 10:42:26;;;;;;;5.43;4.10;;;;;;;9.66;75.42;98987.50;5014642;28;20315;-58
2021/04/01 10:45:17;;;;;;;6.28;4.40;;;;;;;9.65;76.12;98991.81;5003525;28;20030;-62
2021/04/01 10:47:50;;;;;;;6.28;4.22;;;;;;;9.96;77.40;99044.38;5001154;28;20101;-59
2021/04/01 10:50:18;;;;;;;5.55;4.55;;;;;;;10.04;77.74;99036.41;5003525;28;20041;-59
2021/04/01 10:52:44;;;;;;;5.68;4.60;;;;;;;10.00;77.06;99026.16;5003243;28;20060;-59
2021/04/01 10:55:12;;;;;;;4.28;3.72;;;;;;;9.64;78.25;99031.47;5013054;28;20083;-59
2021/04/01 10:57:39;;;;;;;4.13;3.72;;;;;;;9.59;79.01;99017.00;5022995;28;20045;-59
2021/04/01 11:00:13;;;;;;;5.28;3.90;;;;;;;9.71;79.50;99027.00;5035787;28;20025;-58
2021/04/01 11:02:46;;;;;;;6.50;4.50;;;;;;;9.80;79.61;99024.13;5024014;28;20030;-60
2021/04/01 11:05:19;;;;;;;5.10;3.88;;;;;;;9.57;79.06;98965.34;5024248;28;20022;-58
2021/04/01 11:07:51;;;;;;;4.45;3.83;;;;;;;9.93;78.75;99010.84;5023245;28;20032;-58
2021/04/01 11:10:28;;;;;;;5.13;4.63;;;;;;;9.73;79.54;98988.16;5022867;28;20319;-57
2021/04/01 11:13:01;;;;;;;6.75;4.47;;;;;;;9.57;80.77;98985.19;5028051;28;20037;-58
2021/04/01 11:15:31;;;;;;;6.85;4.57;;;;;;;9.94;79.86;99018.56;5029785;28;20055;-58
2021/04/01 11:18:17;;;;;;;6.63;5.10;;;;;;;9.63;79.82;98966.91;5033392;28;20032;-58
2021/04/01 11:20:45;;;;;;;8.50;5.95;;;;;;;9.96;80.20;99013.34;5030665;28;20330;-59
2021/04/01 11:23:22;;;;;;;6.40;5.47;;;;;;;10.08;80.48;99010.41;5027449;28;20048;-59
2021/04/01 11:25:49;;;;;;;6.45;5.25;;;;;;;10.13;79.69;99000.75;5025792;28;20068;-58
2021/04/01 11:28:17;;;;;;;6.40;5.32;;;;;;;10.29;78.66;98987.31;5031971;28;20030;-58
2021/04/01 11:30:48;;;;;;;7.80;5.20;;;;;;;10.58;79.12;98993.34;5037055;28;20184;-58
2021/04/01 11:33:19;;;;;;;9.15;6.15;;;;;;;10.62;78.51;98985.44;5028405;28;20033;-59
2021/04/01 11:35:47;;;;;;;7.03;5.75;;;;;;;10.58;77.40;98985.59;5026876;28;20067;-58
2021/04/01 11:38:23;;;;;;;8.13;5.32;;;;;;;10.03;78.36;98929.47;5040643;28;20334;-58
2021/04/01 11:40:58;;;;;;;6.25;5.32;;;;;;;10.15;78.43;98936.03;5030641;28;20092;-59
2021/04/01 11:43:27;;;;;;;7.00;5.05;;;;;;;10.32;78.54;98982.91;5007349;28;20257;-58
2021/04/01 11:45:53;;;;;;;6.22;5.15;;;;;;;10.14;78.05;98980.91;5026420;28;20380;-59
2021/04/01 11:48:24;;;;;;;6.22;5.05;;;;;;;10.10;78.26;98979.28;5029218;28;20029;-58
2021/04/01 11:50:51;;;;;;;8.52;5.50;;;;;;;10.16;78.56;98971.34;5030741;28;20041;-59
2021/04/01 11:53:18;;;;;;;7.97;4.97;;;;;;;10.04;77.81;98969.16;5029560;28;20095;-59
2021/04/01 11:56:02;;;;;;;5.20;4.43;;;;;;;9.81;78.37;98975.88;5031050;28;20211;-59
2021/04/01 11:58:32;;;;;;;6.63;5.18;;;;;;;9.58;78.56;98941.19;5029332;28;20029;-58
2021/04/01 12:01:06;;;;;;;7.00;5.60;;;;;;;9.83;79.01;98981.81;5029178;28;20052;-59
2021/04/01 12:03:57;;;;;;;7.00;5.20;;;;;;;9.85;79.13;98988.66;5030740;28;20071;-60
2021/04/01 12:06:23;;;;;;;6.97;5.22;;;;;;;9.66;79.85;98975.44;5028503;28;20026;-59
2021/04/01 12:08:50;;;;;;;8.23;5.18;;;;;;;9.67;80.58;98973.69;5029074;28;20097;-59
2021/04/01 12:11:15;;;;;;;7.25;4.90;;;;;;;9.76;79.75;98967.38;5031035;28;20313;-58
2021/04/01 12:13:41;;;;;;;6.40;5.47;;;;;;;9.93;79.33;98964.28;5030105;28;20057;-59
2021/04/01 12:16:33;;;;;;;8.02;4.70;;;;;;;9.69;79.17;98969.31;5029275;28;20075;-58
2021/04/01 12:19:00;;;;;;;7.28;5.78;;;;;;;9.56;79.60;98931.78;5031645;28;20071;-58
2021/04/01 12:21:26;;;;;;;7.85;5.47;;;;;;;9.80;79.05;98963.81;5034362;28;20037;-59
2021/04/01 12:23:58;;;;;;;7.78;5.22;;;;;;;9.67;78.91;98901.28;5033943;28;20029;-59
2021/04/01 12:26:29;;;;;;;5.63;5.00;;;;;;;10.20;77.29;98960.00;5043802;28;20033;-58
2021/04/01 12:29:00;;;;;;;6.90;5.30;;;;;;;9.93;77.78;98897.91;5027910;28;20030;-59
2021/04/01 12:31:38;;;;;;;6.53;4.60;;;;;;;10.31;77.36;98962.25;5045381;28;20032;-60
2021/04/01 12:34:05;;;;;;;10.38;5.75;;;;;;;10.38;76.90;98944.81;5025289;28;20038;-58
2021/04/01 12:36:46;;;;;;;7.25;5.70;;;;;;;10.26;77.10;98954.66;5025726;28;20029;-59
2021/04/01 12:39:12;;;;;;;7.85;5.53;;;;;;;10.29;77.27;98948.50;5025483;28;20036;-59
2021/04/01 12:41:40;;;;;;;7.50;5.45;;;;;;;10.17;77.35;98950.59;5025483;28;20041;-59
2021/04/01 12:44:07;;;;;;;7.55;6.38;;;;;;;10.11;77.26;98948.19;5025721;28;20026;-59
2021/04/01 12:46:41;;;;;;;8.90;6.03;;;;;;;9.87;77.29;98949.81;5025214;28;20341;-58
2021/04/01 12:49:11;;;;;;;10.77;5.72;;;;;;;10.06;77.07;98955.28;5030636;28;20030;-59
2021/04/01 12:52:00;;;;;;;6.57;5.03;;;;;;;9.82;76.64;98885.31;5040180;28;20029;-59
2021/04/01 12:54:29;;;;;;;7.22;5.50;;;;;;;9.72;77.25;98898.56;5031584;28;20033;-59
2021/04/01 12:57:28;;;;;;;8.60;5.80;;;;;;;9.96;76.62;98930.56;5002841;28;20034;-59
2021/04/01 12:59:53;;;;;;;8.60;5.63;;;;;;;9.97;77.08;98934.84;5001399;28;20038;-59
2021/04/01 13:02:24;;;;;;;6.70;5.85;;;;;;;9.96;76.76;98930.56;5003162;28;20059;-59
2021/04/01 13:04:55;;;;;;;10.15;6.10;;;;;;;9.91;77.23;98929.88;5005274;28;20022;-58
2021/04/01 13:12:48;;;;;;;9.70;7.10;;;;;;;9.81;77.74;98929.31;5004981;28;20030;-58
2021/04/01 13:15:14;;;;;;;9.48;7.95;;;;;;;9.88;77.30;98933.41;5004947;28;20207;-59
2021/04/01 13:17:40;;;;;;;9.05;6.85;;;;;;;9.92;77.13;98927.25;5004412;28;20116;-58
2021/04/01 13:20:07;;;;;;;10.88;7.72;;;;;;;9.73;79.36;98928.69;5004136;28;20030;-57
2021/04/01 13:25:28;;;;;;;13.25;8.13;;;;;;;9.74;78.50;98922.66;5004945;28;20092;-58
2021/04/01 13:28:03;;;;;;;14.80;8.25;;;;;;;9.42;79.46;98903.75;5005143;28;20223;-58
2021/04/01 13:30:30;;;;;;;11.75;7.35;;;;;;;9.71;80.20;98933.09;5003989;28;20270;-59
2021/04/01 13:33:08;;;;;;;15.38;7.78;;;;;;;9.66;80.10;98910.78;5004865;28;20042;-57
2021/04/01 13:35:44;;;;;;;12.25;7.53;;;;;;;9.70;79.44;98923.63;5005132;28;20034;-57
2021/04/01 13:38:16;;;;;;;12.10;8.35;;;;;;;9.70;79.95;98908.94;4985405;28;20030;-58
2021/04/01 13:40:44;;;;;;;13.45;8.30;;;;;;;9.53;82.39;98924.97;4985472;28;20033;-57
2021/04/01 13:43:15;;;;;;;10.75;7.82;;;;;;;9.67;81.04;98922.81;4998083;28;20034;-58
2021/04/01 13:45:42;;;;;;;12.77;7.77;;;;;;;9.80;81.47;98922.44;5004623;28;20319;-59
2021/04/01 13:48:18;;;;;;;11.95;7.63;;;;;;;9.47;83.01;98933.75;5004388;28;20022;-58